sensor_id;sensor_type;location;lat;lon;timestamp;P1;P2;P0
62054;PMS5003;48653;51.742;-1.256;2023-03-01T00:00:00;8;8;
62054;PMS5003;48653;51.742;-1.256;2023-03-01T00:03:44;14;9;
62054;PMS5003;48653;51.742;-1.256;2023-03-01T00:06:09;7;7;
62054;PMS5003;48653;51.742;-1.256;2023-03-01T00:08:35;8;7;
62054;PMS5003;48653;51.742;-1.256;2023-03-01T00:11:01;9;8;
62054;PMS5003;48653;51.742;-1.256;2023-03-01T00:13:26;9;7;
62054;PMS5003;48653;51.742;-1.256;2023-03-01T00:15:51;7;6;
62054;PMS5003;48653;51.742;-1.256;2023-03-01T00:18:16;9;7;
62054;PMS5003;48653;51.742;-1.256;2023-03-01T00:20:42;9;8;
62054;PMS5003;48653;51.742;-1.256;2023-03-01T00:23:07;6;5;
62054;PMS5003;48653;51.742;-1.256;2023-03-01T00:25:32;7;6;
62054;PMS5003;48653;51.742;-1.256;2023-03-01T00:27:57;7;6;
62054;PMS5003;48653;51.742;-1.256;2023-03-01T00:30:22;8;8;
62054;PMS5003;48653;51.742;-1.256;2023-03-01T00:32:48;10;9;
62054;PMS5003;48653;51.742;-1.256;2023-03-01T00:35:14;11;8;
62054;PMS5003;48653;51.742;-1.256;2023-03-01T00:37:39;12;10;
62054;PMS5003;48653;51.742;-1.256;2023-03-01T00:40:05;8;8;
62054;PMS5003;48653;51.742;-1.256;2023-03-01T00:42:29;8;8;
62054;PMS5003;48653;51.742;-1.256;2023-03-01T00:44:55;7;7;
62054;PMS5003;48653;51.742;-1.256;2023-03-01T00:47:20;7;7;
62054;PMS5003;48653;51.742;-1.256;2023-03-01T00:49:45;6;5;
62054;PMS5003;48653;51.742;-1.256;2023-03-01T00:52:10;5;5;
62054;PMS5003;48653;51.742;-1.256;2023-03-01T00:54:35;5;5;
62054;PMS5003;48653;51.742;-1.256;2023-03-01T00:57:00;3;3;
62054;PMS5003;48653;51.742;-1.256;2023-03-01T00:59:26;5;3;
62054;PMS5003;48653;51.742;-1.256;2023-03-01T01:01:51;3;3;
62054;PMS5003;48653;51.742;-1.256;2023-03-01T01:04:16;3;3;
62054;PMS5003;48653;51.742;-1.256;2023-03-01T01:06:42;4;4;
62054;PMS5003;48653;51.742;-1.256;2023-03-01T01:09:06;6;5;
62054;PMS5003;48653;51.742;-1.256;2023-03-01T01:11:31;3;2;
62054;PMS5003;48653;51.742;-1.256;2023-03-01T01:13:57;3;3;
62054;PMS5003;48653;51.742;-1.256;2023-03-01T01:16:23;2;2;
62054;PMS5003;48653;51.742;-1.256;2023-03-01T01:18:47;2;2;
62054;PMS5003;48653;51.742;-1.256;2023-03-01T01:21:13;2;1;
62054;PMS5003;48653;51.742;-1.256;2023-03-01T01:23:37;4;4;
62054;PMS5003;48653;51.742;-1.256;2023-03-01T01:26:03;3;3;
62054;PMS5003;48653;51.742;-1.256;2023-03-01T01:28:27;6;5;
62054;PMS5003;48653;51.742;-1.256;2023-03-01T01:30:53;3;3;
62054;PMS5003;48653;51.742;-1.256;2023-03-01T01:33:18;4;4;
62054;PMS5003;48653;51.742;-1.256;2023-03-01T01:35:44;2;2;
62054;PMS5003;48653;51.742;-1.256;2023-03-01T01:38:08;2;2;
62054;PMS5003;48653;51.742;-1.256;2023-03-01T01:40:33;2;1;
62054;PMS5003;48653;51.742;-1.256;2023-03-01T01:42:59;1;1;
62054;PMS5003;48653;51.742;-1.256;2023-03-01T01:45:24;0;0;
62054;PMS5003;48653;51.742;-1.256;2023-03-01T01:47:49;2;1;
62054;PMS5003;48653;51.742;-1.256;2023-03-01T01:50:14;1;1;
62054;PMS5003;48653;51.742;-1.256;2023-03-01T01:52:39;0;0;
62054;PMS5003;48653;51.742;-1.256;2023-03-01T01:55:05;1;1;
62054;PMS5003;48653;51.742;-1.256;2023-03-01T01:57:32;1;1;
62054;PMS5003;48653;51.742;-1.256;2023-03-01T01:59:56;0;0;
62054;PMS5003;48653;51.742;-1.256;2023-03-01T02:02:20;0;0;
62054;PMS5003;48653;51.742;-1.256;2023-03-01T02:04:45;0;0;
62054;PMS5003;48653;51.742;-1.256;2023-03-01T02:07:13;1;0;
62054;PMS5003;48653;51.742;-1.256;2023-03-01T02:09:35;1;1;
62054;PMS5003;48653;51.742;-1.256;2023-03-01T02:12:00;1;1;
62054;PMS5003;48653;51.742;-1.256;2023-03-01T02:14:25;1;1;
62054;PMS5003;48653;51.742;-1.256;2023-03-01T02:16:51;1;0;
62054;PMS5003;48653;51.742;-1.256;2023-03-01T02:19:19;0;0;
62054;PMS5003;48653;51.742;-1.256;2023-03-01T02:21:42;0;0;
62054;PMS5003;48653;51.742;-1.256;2023-03-01T02:24:08;0;0;
62054;PMS5003;48653;51.742;-1.256;2023-03-01T02:26:33;0;0;
62054;PMS5003;48653;51.742;-1.256;2023-03-01T02:28:56;0;0;
62054;PMS5003;48653;51.742;-1.256;2023-03-01T02:31:22;0;0;
62054;PMS5003;48653;51.742;-1.256;2023-03-01T02:33:47;1;1;
62054;PMS5003;48653;51.742;-1.256;2023-03-01T02:36:14;0;0;
62054;PMS5003;48653;51.742;-1.256;2023-03-01T02:38:37;1;1;
62054;PMS5003;48653;51.742;-1.256;2023-03-01T02:41:02;0;0;
62054;PMS5003;48653;51.742;-1.256;2023-03-01T02:43:29;2;1;
62054;PMS5003;48653;51.742;-1.256;2023-03-01T02:45:53;0;0;
62054;PMS5003;48653;51.742;-1.256;2023-03-01T02:48:18;2;1;
62054;PMS5003;48653;51.742;-1.256;2023-03-01T02:50:46;2;0;
62054;PMS5003;48653;51.742;-1.256;2023-03-01T02:53:09;0;0;
62054;PMS5003;48653;51.742;-1.256;2023-03-01T02:55:33;0;0;
62054;PMS5003;48653;51.742;-1.256;2023-03-01T02:57:58;0;0;
62054;PMS5003;48653;51.742;-1.256;2023-03-01T03:00:24;0;0;
62054;PMS5003;48653;51.742;-1.256;2023-03-01T03:02:50;1;1;
62054;PMS5003;48653;51.742;-1.256;2023-03-01T03:05:15;1;1;
62054;PMS5003;48653;51.742;-1.256;2023-03-01T03:07:40;1;1;
62054;PMS5003;48653;51.742;-1.256;2023-03-01T03:10:06;2;2;
62054;PMS5003;48653;51.742;-1.256;2023-03-01T03:12:30;2;1;
62054;PMS5003;48653;51.742;-1.256;2023-03-01T03:14:55;3;3;
62054;PMS5003;48653;51.742;-1.256;2023-03-01T03:17:20;2;2;
62054;PMS5003;48653;51.742;-1.256;2023-03-01T03:19:45;1;1;
62054;PMS5003;48653;51.742;-1.256;2023-03-01T03:22:10;1;1;
62054;PMS5003;48653;51.742;-1.256;2023-03-01T03:24:36;1;1;
62054;PMS5003;48653;51.742;-1.256;2023-03-01T03:27:01;1;0;
62054;PMS5003;48653;51.742;-1.256;2023-03-01T03:29:26;0;0;
62054;PMS5003;48653;51.742;-1.256;2023-03-01T03:31:51;1;1;
62054;PMS5003;48653;51.742;-1.256;2023-03-01T03:34:16;1;0;
62054;PMS5003;48653;51.742;-1.256;2023-03-01T03:36:42;0;0;
62054;PMS5003;48653;51.742;-1.256;2023-03-01T03:39:07;3;1;
62054;PMS5003;48653;51.742;-1.256;2023-03-01T03:41:34;2;1;
62054;PMS5003;48653;51.742;-1.256;2023-03-01T03:43:57;0;0;
62054;PMS5003;48653;51.742;-1.256;2023-03-01T03:46:22;2;1;
62054;PMS5003;48653;51.742;-1.256;2023-03-01T03:48:47;1;1;
62054;PMS5003;48653;51.742;-1.256;2023-03-01T03:51:14;3;2;
62054;PMS5003;48653;51.742;-1.256;2023-03-01T03:53:38;1;1;
62054;PMS5003;48653;51.742;-1.256;2023-03-01T03:56:03;2;1;
62054;PMS5003;48653;51.742;-1.256;2023-03-01T03:58:28;2;2;
62054;PMS5003;48653;51.742;-1.256;2023-03-01T04:00:54;2;2;
62054;PMS5003;48653;51.742;-1.256;2023-03-01T04:03:19;4;2;
62054;PMS5003;48653;51.742;-1.256;2023-03-01T04:05:43;3;2;
62054;PMS5003;48653;51.742;-1.256;2023-03-01T04:08:09;3;1;
62054;PMS5003;48653;51.742;-1.256;2023-03-01T04:10:35;3;3;
62054;PMS5003;48653;51.742;-1.256;2023-03-01T04:13:00;3;2;
62054;PMS5003;48653;51.742;-1.256;2023-03-01T04:15:25;2;1;
62054;PMS5003;48653;51.742;-1.256;2023-03-01T04:17:50;4;2;
62054;PMS5003;48653;51.742;-1.256;2023-03-01T04:20:16;2;2;
62054;PMS5003;48653;51.742;-1.256;2023-03-01T04:22:40;2;2;
62054;PMS5003;48653;51.742;-1.256;2023-03-01T04:25:06;3;3;
62054;PMS5003;48653;51.742;-1.256;2023-03-01T04:27:30;4;3;
62054;PMS5003;48653;51.742;-1.256;2023-03-01T04:29:56;4;3;
62054;PMS5003;48653;51.742;-1.256;2023-03-01T04:32:21;3;3;
62054;PMS5003;48653;51.742;-1.256;2023-03-01T04:34:46;4;2;
62054;PMS5003;48653;51.742;-1.256;2023-03-01T04:37:11;5;5;
62054;PMS5003;48653;51.742;-1.256;2023-03-01T04:39:36;4;2;
62054;PMS5003;48653;51.742;-1.256;2023-03-01T04:42:01;1;1;
62054;PMS5003;48653;51.742;-1.256;2023-03-01T04:44:27;2;2;
62054;PMS5003;48653;51.742;-1.256;2023-03-01T04:46:52;2;2;
62054;PMS5003;48653;51.742;-1.256;2023-03-01T04:49:17;2;2;
62054;PMS5003;48653;51.742;-1.256;2023-03-01T04:51:42;2;2;
62054;PMS5003;48653;51.742;-1.256;2023-03-01T04:54:07;4;2;
62054;PMS5003;48653;51.742;-1.256;2023-03-01T04:56:32;7;3;
62054;PMS5003;48653;51.742;-1.256;2023-03-01T04:58:58;3;3;
62054;PMS5003;48653;51.742;-1.256;2023-03-01T05:01:23;3;3;
62054;PMS5003;48653;51.742;-1.256;2023-03-01T05:03:49;3;3;
62054;PMS5003;48653;51.742;-1.256;2023-03-01T05:06:13;7;3;
62054;PMS5003;48653;51.742;-1.256;2023-03-01T05:08:39;5;5;
62054;PMS5003;48653;51.742;-1.256;2023-03-01T05:11:04;5;3;
62054;PMS5003;48653;51.742;-1.256;2023-03-01T05:13:29;9;6;
62054;PMS5003;48653;51.742;-1.256;2023-03-01T05:15:56;6;6;
62054;PMS5003;48653;51.742;-1.256;2023-03-01T05:18:20;6;6;
62054;PMS5003;48653;51.742;-1.256;2023-03-01T05:20:45;9;7;
62054;PMS5003;48653;51.742;-1.256;2023-03-01T05:23:10;7;7;
62054;PMS5003;48653;51.742;-1.256;2023-03-01T05:25:36;14;9;
62054;PMS5003;48653;51.742;-1.256;2023-03-01T05:28:02;8;6;
62054;PMS5003;48653;51.742;-1.256;2023-03-01T05:30:27;6;6;
62054;PMS5003;48653;51.742;-1.256;2023-03-01T05:32:52;9;6;
62054;PMS5003;48653;51.742;-1.256;2023-03-01T05:35:17;12;8;
62054;PMS5003;48653;51.742;-1.256;2023-03-01T05:37:43;9;8;
62054;PMS5003;48653;51.742;-1.256;2023-03-01T05:40:09;12;8;
62054;PMS5003;48653;51.742;-1.256;2023-03-01T05:42:33;9;7;
62054;PMS5003;48653;51.742;-1.256;2023-03-01T05:44:58;7;5;
62054;PMS5003;48653;51.742;-1.256;2023-03-01T05:47:24;7;6;
62054;PMS5003;48653;51.742;-1.256;2023-03-01T05:49:49;12;8;
62054;PMS5003;48653;51.742;-1.256;2023-03-01T05:52:14;13;8;
62054;PMS5003;48653;51.742;-1.256;2023-03-01T05:54:40;11;7;
62054;PMS5003;48653;51.742;-1.256;2023-03-01T05:57:05;6;5;
62054;PMS5003;48653;51.742;-1.256;2023-03-01T05:59:30;8;7;
62054;PMS5003;48653;51.742;-1.256;2023-03-01T06:01:56;9;8;
62054;PMS5003;48653;51.742;-1.256;2023-03-01T06:04:21;4;4;
62054;PMS5003;48653;51.742;-1.256;2023-03-01T06:06:46;7;5;
62054;PMS5003;48653;51.742;-1.256;2023-03-01T06:09:11;9;7;
62054;PMS5003;48653;51.742;-1.256;2023-03-01T06:11:37;8;8;
62054;PMS5003;48653;51.742;-1.256;2023-03-01T06:14:03;7;7;
62054;PMS5003;48653;51.742;-1.256;2023-03-01T06:16:29;9;9;
62054;PMS5003;48653;51.742;-1.256;2023-03-01T06:18:54;11;9;
62054;PMS5003;48653;51.742;-1.256;2023-03-01T06:21:20;13;9;
62054;PMS5003;48653;51.742;-1.256;2023-03-01T06:23:45;10;9;
62054;PMS5003;48653;51.742;-1.256;2023-03-01T06:26:11;10;9;
62054;PMS5003;48653;51.742;-1.256;2023-03-01T06:28:36;8;7;
62054;PMS5003;48653;51.742;-1.256;2023-03-01T06:31:02;10;8;
62054;PMS5003;48653;51.742;-1.256;2023-03-01T06:33:28;7;7;
62054;PMS5003;48653;51.742;-1.256;2023-03-01T06:35:54;8;6;
62054;PMS5003;48653;51.742;-1.256;2023-03-01T06:38:18;8;7;
62054;PMS5003;48653;51.742;-1.256;2023-03-01T06:40:43;7;6;
62054;PMS5003;48653;51.742;-1.256;2023-03-01T06:43:09;6;6;
62054;PMS5003;48653;51.742;-1.256;2023-03-01T06:45:35;10;6;
62054;PMS5003;48653;51.742;-1.256;2023-03-01T06:48:01;8;4;
62054;PMS5003;48653;51.742;-1.256;2023-03-01T06:50:25;7;5;
62054;PMS5003;48653;51.742;-1.256;2023-03-01T06:52:55;4;3;
62054;PMS5003;48653;51.742;-1.256;2023-03-01T06:55:15;3;3;
62054;PMS5003;48653;51.742;-1.256;2023-03-01T06:57:40;6;5;
62054;PMS5003;48653;51.742;-1.256;2023-03-01T07:00:07;7;4;
62054;PMS5003;48653;51.742;-1.256;2023-03-01T07:02:31;5;5;
62054;PMS5003;48653;51.742;-1.256;2023-03-01T07:04:56;6;3;
62054;PMS5003;48653;51.742;-1.256;2023-03-01T07:07:21;6;4;
62054;PMS5003;48653;51.742;-1.256;2023-03-01T07:09:46;4;4;
62054;PMS5003;48653;51.742;-1.256;2023-03-01T07:12:11;3;3;
62054;PMS5003;48653;51.742;-1.256;2023-03-01T07:14:37;5;3;
62054;PMS5003;48653;51.742;-1.256;2023-03-01T07:17:02;6;5;
62054;PMS5003;48653;51.742;-1.256;2023-03-01T07:19:27;2;2;
62054;PMS5003;48653;51.742;-1.256;2023-03-01T07:21:52;3;3;
62054;PMS5003;48653;51.742;-1.256;2023-03-01T07:24:17;6;4;
62054;PMS5003;48653;51.742;-1.256;2023-03-01T07:26:43;6;5;
62054;PMS5003;48653;51.742;-1.256;2023-03-01T07:29:10;8;3;
62054;PMS5003;48653;51.742;-1.256;2023-03-01T07:31:34;7;3;
62054;PMS5003;48653;51.742;-1.256;2023-03-01T07:33:58;2;2;
62054;PMS5003;48653;51.742;-1.256;2023-03-01T07:36:24;6;5;
62054;PMS5003;48653;51.742;-1.256;2023-03-01T07:38:49;2;2;
62054;PMS5003;48653;51.742;-1.256;2023-03-01T07:41:15;3;2;
62054;PMS5003;48653;51.742;-1.256;2023-03-01T07:43:40;6;3;
62054;PMS5003;48653;51.742;-1.256;2023-03-01T07:46:05;7;4;
62054;PMS5003;48653;51.742;-1.256;2023-03-01T07:48:31;2;1;
62054;PMS5003;48653;51.742;-1.256;2023-03-01T07:50:57;2;1;
62054;PMS5003;48653;51.742;-1.256;2023-03-01T07:53:21;3;2;
62054;PMS5003;48653;51.742;-1.256;2023-03-01T07:55:46;4;3;
62054;PMS5003;48653;51.742;-1.256;2023-03-01T07:58:11;2;2;
62054;PMS5003;48653;51.742;-1.256;2023-03-01T08:00:36;1;1;
62054;PMS5003;48653;51.742;-1.256;2023-03-01T08:03:01;2;2;
62054;PMS5003;48653;51.742;-1.256;2023-03-01T08:05:27;2;1;
62054;PMS5003;48653;51.742;-1.256;2023-03-01T08:07:52;3;2;
62054;PMS5003;48653;51.742;-1.256;2023-03-01T08:10:17;1;1;
62054;PMS5003;48653;51.742;-1.256;2023-03-01T08:12:42;1;1;
62054;PMS5003;48653;51.742;-1.256;2023-03-01T08:15:08;1;1;
62054;PMS5003;48653;51.742;-1.256;2023-03-01T08:17:32;2;0;
62054;PMS5003;48653;51.742;-1.256;2023-03-01T08:19:57;2;0;
62054;PMS5003;48653;51.742;-1.256;2023-03-01T08:22:23;1;1;
62054;PMS5003;48653;51.742;-1.256;2023-03-01T08:24:48;3;1;
62054;PMS5003;48653;51.742;-1.256;2023-03-01T08:27:14;1;1;
62054;PMS5003;48653;51.742;-1.256;2023-03-01T08:29:38;3;2;
62054;PMS5003;48653;51.742;-1.256;2023-03-01T08:32:03;2;2;
62054;PMS5003;48653;51.742;-1.256;2023-03-01T08:34:29;2;2;
62054;PMS5003;48653;51.742;-1.256;2023-03-01T08:36:54;4;1;
62054;PMS5003;48653;51.742;-1.256;2023-03-01T08:39:19;3;3;
62054;PMS5003;48653;51.742;-1.256;2023-03-01T08:41:44;1;1;
62054;PMS5003;48653;51.742;-1.256;2023-03-01T08:44:09;5;2;
62054;PMS5003;48653;51.742;-1.256;2023-03-01T08:46:37;4;2;
62054;PMS5003;48653;51.742;-1.256;2023-03-01T08:48:59;2;2;
62054;PMS5003;48653;51.742;-1.256;2023-03-01T08:51:25;2;2;
62054;PMS5003;48653;51.742;-1.256;2023-03-01T08:53:50;1;1;
62054;PMS5003;48653;51.742;-1.256;2023-03-01T08:56:15;3;2;
62054;PMS5003;48653;51.742;-1.256;2023-03-01T08:58:43;3;3;
62054;PMS5003;48653;51.742;-1.256;2023-03-01T09:01:07;2;2;
62054;PMS5003;48653;51.742;-1.256;2023-03-01T09:03:31;2;2;
62054;PMS5003;48653;51.742;-1.256;2023-03-01T09:05:59;3;3;
62054;PMS5003;48653;51.742;-1.256;2023-03-01T09:08:21;2;2;
62054;PMS5003;48653;51.742;-1.256;2023-03-01T09:10:51;6;3;
62054;PMS5003;48653;51.742;-1.256;2023-03-01T09:13:11;3;3;
62054;PMS5003;48653;51.742;-1.256;2023-03-01T09:15:36;1;1;
62054;PMS5003;48653;51.742;-1.256;2023-03-01T09:18:02;2;1;
62054;PMS5003;48653;51.742;-1.256;2023-03-01T09:20:27;2;2;
62054;PMS5003;48653;51.742;-1.256;2023-03-01T09:22:52;2;2;
62054;PMS5003;48653;51.742;-1.256;2023-03-01T09:25:17;3;2;
62054;PMS5003;48653;51.742;-1.256;2023-03-01T09:27:42;2;1;
62054;PMS5003;48653;51.742;-1.256;2023-03-01T09:30:08;1;1;
62054;PMS5003;48653;51.742;-1.256;2023-03-01T09:32:33;3;1;
62054;PMS5003;48653;51.742;-1.256;2023-03-01T09:34:58;3;3;
62054;PMS5003;48653;51.742;-1.256;2023-03-01T09:37:23;2;1;
62054;PMS5003;48653;51.742;-1.256;2023-03-01T09:39:48;1;1;
62054;PMS5003;48653;51.742;-1.256;2023-03-01T09:42:13;2;2;
62054;PMS5003;48653;51.742;-1.256;2023-03-01T09:44:40;2;2;
62054;PMS5003;48653;51.742;-1.256;2023-03-01T09:47:03;6;2;
62054;PMS5003;48653;51.742;-1.256;2023-03-01T09:49:29;7;2;
62054;PMS5003;48653;51.742;-1.256;2023-03-01T09:51:55;1;1;
62054;PMS5003;48653;51.742;-1.256;2023-03-01T09:54:19;3;2;
62054;PMS5003;48653;51.742;-1.256;2023-03-01T09:56:46;2;2;
62054;PMS5003;48653;51.742;-1.256;2023-03-01T09:59:14;2;2;
62054;PMS5003;48653;51.742;-1.256;2023-03-01T10:01:35;2;2;
62054;PMS5003;48653;51.742;-1.256;2023-03-01T10:04:02;0;0;
62054;PMS5003;48653;51.742;-1.256;2023-03-01T10:06:24;0;0;
62054;PMS5003;48653;51.742;-1.256;2023-03-01T10:08:50;1;1;
62054;PMS5003;48653;51.742;-1.256;2023-03-01T10:11:17;1;1;
62054;PMS5003;48653;51.742;-1.256;2023-03-01T10:13:43;1;1;
62054;PMS5003;48653;51.742;-1.256;2023-03-01T10:16:09;1;1;
62054;PMS5003;48653;51.742;-1.256;2023-03-01T10:18:30;1;1;
62054;PMS5003;48653;51.742;-1.256;2023-03-01T10:20:57;3;0;
62054;PMS5003;48653;51.742;-1.256;2023-03-01T10:23:22;1;0;
62054;PMS5003;48653;51.742;-1.256;2023-03-01T10:25:52;1;1;
62054;PMS5003;48653;51.742;-1.256;2023-03-01T10:28:14;2;0;
62054;PMS5003;48653;51.742;-1.256;2023-03-01T10:30:37;1;1;
62054;PMS5003;48653;51.742;-1.256;2023-03-01T10:33:01;3;1;
62054;PMS5003;48653;51.742;-1.256;2023-03-01T10:35:27;1;1;
62054;PMS5003;48653;51.742;-1.256;2023-03-01T10:40:16;1;1;
62054;PMS5003;48653;51.742;-1.256;2023-03-01T10:42:46;3;2;
62054;PMS5003;48653;51.742;-1.256;2023-03-01T10:47:32;1;1;
62054;PMS5003;48653;51.742;-1.256;2023-03-01T10:49:58;1;1;
62054;PMS5003;48653;51.742;-1.256;2023-03-01T10:52:24;5;4;
62054;PMS5003;48653;51.742;-1.256;2023-03-01T10:54:51;2;2;
62054;PMS5003;48653;51.742;-1.256;2023-03-01T10:59:38;4;3;
62054;PMS5003;48653;51.742;-1.256;2023-03-01T11:02:11;3;2;
62054;PMS5003;48653;51.742;-1.256;2023-03-01T11:04:28;2;2;
62054;PMS5003;48653;51.742;-1.256;2023-03-01T11:06:57;4;4;
62054;PMS5003;48653;51.742;-1.256;2023-03-01T11:09:19;5;3;
62054;PMS5003;48653;51.742;-1.256;2023-03-01T11:11:44;2;2;
62054;PMS5003;48653;51.742;-1.256;2023-03-01T11:14:13;7;6;
62054;PMS5003;48653;51.742;-1.256;2023-03-01T11:16:34;5;4;
62054;PMS5003;48653;51.742;-1.256;2023-03-01T11:19:01;6;6;
62054;PMS5003;48653;51.742;-1.256;2023-03-01T11:21:25;10;7;
62054;PMS5003;48653;51.742;-1.256;2023-03-01T11:23:50;4;4;
62054;PMS5003;48653;51.742;-1.256;2023-03-01T11:26:15;3;2;
62054;PMS5003;48653;51.742;-1.256;2023-03-01T11:28:40;2;0;
62054;PMS5003;48653;51.742;-1.256;2023-03-01T11:31:06;3;2;
62054;PMS5003;48653;51.742;-1.256;2023-03-01T11:33:33;1;1;
62054;PMS5003;48653;51.742;-1.256;2023-03-01T11:35:55;3;1;
62054;PMS5003;48653;51.742;-1.256;2023-03-01T11:38:21;1;1;
62054;PMS5003;48653;51.742;-1.256;2023-03-01T11:40:46;1;1;
62054;PMS5003;48653;51.742;-1.256;2023-03-01T11:43:14;5;4;
62054;PMS5003;48653;51.742;-1.256;2023-03-01T11:45:39;3;1;
62054;PMS5003;48653;51.742;-1.256;2023-03-01T11:48:05;2;2;
62054;PMS5003;48653;51.742;-1.256;2023-03-01T11:50:29;7;3;
62054;PMS5003;48653;51.742;-1.256;2023-03-01T11:52:56;1;1;
62054;PMS5003;48653;51.742;-1.256;2023-03-01T11:55:25;1;1;
62054;PMS5003;48653;51.742;-1.256;2023-03-01T11:57:45;0;0;
62054;PMS5003;48653;51.742;-1.256;2023-03-01T12:00:12;1;1;
62054;PMS5003;48653;51.742;-1.256;2023-03-01T12:05:02;1;1;
62054;PMS5003;48653;51.742;-1.256;2023-03-01T12:07:24;2;1;
62054;PMS5003;48653;51.742;-1.256;2023-03-01T12:09:50;0;0;
62054;PMS5003;48653;51.742;-1.256;2023-03-01T12:14:42;0;0;
62054;PMS5003;48653;51.742;-1.256;2023-03-01T12:17:07;2;1;
62054;PMS5003;48653;51.742;-1.256;2023-03-01T12:19:31;2;1;
62054;PMS5003;48653;51.742;-1.256;2023-03-01T12:21:58;0;0;
62054;PMS5003;48653;51.742;-1.256;2023-03-01T12:24:23;2;2;
62054;PMS5003;48653;51.742;-1.256;2023-03-01T12:26:44;2;1;
62054;PMS5003;48653;51.742;-1.256;2023-03-01T12:29:17;1;1;
62054;PMS5003;48653;51.742;-1.256;2023-03-01T12:31:38;3;3;
62054;PMS5003;48653;51.742;-1.256;2023-03-01T12:34:01;5;4;
62054;PMS5003;48653;51.742;-1.256;2023-03-01T12:36:36;5;3;
62054;PMS5003;48653;51.742;-1.256;2023-03-01T12:38:49;6;4;
62054;PMS5003;48653;51.742;-1.256;2023-03-01T12:41:19;2;2;
62054;PMS5003;48653;51.742;-1.256;2023-03-01T12:43:43;5;4;
62054;PMS5003;48653;51.742;-1.256;2023-03-01T12:46:07;2;1;
62054;PMS5003;48653;51.742;-1.256;2023-03-01T12:48:32;1;1;
62054;PMS5003;48653;51.742;-1.256;2023-03-01T12:50:55;2;2;
62054;PMS5003;48653;51.742;-1.256;2023-03-01T12:53:22;2;2;
62054;PMS5003;48653;51.742;-1.256;2023-03-01T12:55:45;2;2;
62054;PMS5003;48653;51.742;-1.256;2023-03-01T12:58:15;6;3;
62054;PMS5003;48653;51.742;-1.256;2023-03-01T13:00:36;5;4;
62054;PMS5003;48653;51.742;-1.256;2023-03-01T13:03:04;3;3;
62054;PMS5003;48653;51.742;-1.256;2023-03-01T13:05:29;6;5;
62054;PMS5003;48653;51.742;-1.256;2023-03-01T13:07:53;5;3;
62054;PMS5003;48653;51.742;-1.256;2023-03-01T13:10:19;3;2;
62054;PMS5003;48653;51.742;-1.256;2023-03-01T13:12:42;2;2;
62054;PMS5003;48653;51.742;-1.256;2023-03-01T13:17:46;5;3;
62054;PMS5003;48653;51.742;-1.256;2023-03-01T13:19:57;5;3;
62054;PMS5003;48653;51.742;-1.256;2023-03-01T13:22:26;3;3;
62054;PMS5003;48653;51.742;-1.256;2023-03-01T13:24:47;3;3;
62054;PMS5003;48653;51.742;-1.256;2023-03-01T13:32:03;1;0;
62054;PMS5003;48653;51.742;-1.256;2023-03-01T13:36:53;0;0;
62054;PMS5003;48653;51.742;-1.256;2023-03-01T13:39:27;1;1;
62054;PMS5003;48653;51.742;-1.256;2023-03-01T13:41:49;2;1;
62054;PMS5003;48653;51.742;-1.256;2023-03-01T13:44:12;1;1;
62054;PMS5003;48653;51.742;-1.256;2023-03-01T13:46:33;4;3;
62054;PMS5003;48653;51.742;-1.256;2023-03-01T13:48:58;3;2;
62054;PMS5003;48653;51.742;-1.256;2023-03-01T13:51:25;4;3;
62054;PMS5003;48653;51.742;-1.256;2023-03-01T13:53:48;1;1;
62054;PMS5003;48653;51.742;-1.256;2023-03-01T13:56:15;0;0;
62054;PMS5003;48653;51.742;-1.256;2023-03-01T13:58:44;1;1;
62054;PMS5003;48653;51.742;-1.256;2023-03-01T14:01:04;2;2;
62054;PMS5003;48653;51.742;-1.256;2023-03-01T14:03:29;2;2;
62054;PMS5003;48653;51.742;-1.256;2023-03-01T14:05:59;4;4;
62054;PMS5003;48653;51.742;-1.256;2023-03-01T14:08:21;6;2;
62054;PMS5003;48653;51.742;-1.256;2023-03-01T14:10:47;3;2;
62054;PMS5003;48653;51.742;-1.256;2023-03-01T14:13:17;2;2;
62054;PMS5003;48653;51.742;-1.256;2023-03-01T14:15:35;2;2;
62054;PMS5003;48653;51.742;-1.256;2023-03-01T14:18:01;3;2;
62054;PMS5003;48653;51.742;-1.256;2023-03-01T14:20:25;2;1;
62054;PMS5003;48653;51.742;-1.256;2023-03-01T14:22:51;1;1;
62054;PMS5003;48653;51.742;-1.256;2023-03-01T14:25:17;0;0;
62054;PMS5003;48653;51.742;-1.256;2023-03-01T14:27:40;1;0;
62054;PMS5003;48653;51.742;-1.256;2023-03-01T14:30:11;1;1;
62054;PMS5003;48653;51.742;-1.256;2023-03-01T14:32:31;0;0;
62054;PMS5003;48653;51.742;-1.256;2023-03-01T14:34:56;2;2;
62054;PMS5003;48653;51.742;-1.256;2023-03-01T14:37:21;0;0;
62054;PMS5003;48653;51.742;-1.256;2023-03-01T14:39:46;1;1;
62054;PMS5003;48653;51.742;-1.256;2023-03-01T14:42:11;0;0;
62054;PMS5003;48653;51.742;-1.256;2023-03-01T14:44:36;0;0;
62054;PMS5003;48653;51.742;-1.256;2023-03-01T14:47:01;0;0;
62054;PMS5003;48653;51.742;-1.256;2023-03-01T14:49:27;2;0;
62054;PMS5003;48653;51.742;-1.256;2023-03-01T14:51:52;3;2;
62054;PMS5003;48653;51.742;-1.256;2023-03-01T14:54:19;1;1;
62054;PMS5003;48653;51.742;-1.256;2023-03-01T14:56:43;2;2;
62054;PMS5003;48653;51.742;-1.256;2023-03-01T14:59:07;2;1;
62054;PMS5003;48653;51.742;-1.256;2023-03-01T15:01:32;2;2;
62054;PMS5003;48653;51.742;-1.256;2023-03-01T15:03:57;1;1;
62054;PMS5003;48653;51.742;-1.256;2023-03-01T15:06:22;2;2;
62054;PMS5003;48653;51.742;-1.256;2023-03-01T15:08:48;4;3;
62054;PMS5003;48653;51.742;-1.256;2023-03-01T15:11:17;4;4;
62054;PMS5003;48653;51.742;-1.256;2023-03-01T15:13:39;4;4;
62054;PMS5003;48653;51.742;-1.256;2023-03-01T15:16:04;5;5;
62054;PMS5003;48653;51.742;-1.256;2023-03-01T15:18:29;2;2;
62054;PMS5003;48653;51.742;-1.256;2023-03-01T15:20:54;1;1;
62054;PMS5003;48653;51.742;-1.256;2023-03-01T15:23:20;3;3;
62054;PMS5003;48653;51.742;-1.256;2023-03-01T15:25:44;7;6;
62054;PMS5003;48653;51.742;-1.256;2023-03-01T15:28:16;4;4;
62054;PMS5003;48653;51.742;-1.256;2023-03-01T15:30:35;2;2;
62054;PMS5003;48653;51.742;-1.256;2023-03-01T15:35:37;4;4;
62054;PMS5003;48653;51.742;-1.256;2023-03-01T15:37:50;4;4;
62054;PMS5003;48653;51.742;-1.256;2023-03-01T15:40:18;2;2;
62054;PMS5003;48653;51.742;-1.256;2023-03-01T15:42:40;0;0;
62054;PMS5003;48653;51.742;-1.256;2023-03-01T15:45:09;2;1;
62054;PMS5003;48653;51.742;-1.256;2023-03-01T15:47:30;0;0;
62054;PMS5003;48653;51.742;-1.256;2023-03-01T15:49:56;2;1;
62054;PMS5003;48653;51.742;-1.256;2023-03-01T15:52:22;4;1;
62054;PMS5003;48653;51.742;-1.256;2023-03-01T15:54:46;3;1;
62054;PMS5003;48653;51.742;-1.256;2023-03-01T15:57:12;3;2;
62054;PMS5003;48653;51.742;-1.256;2023-03-01T15:59:36;2;1;
62054;PMS5003;48653;51.742;-1.256;2023-03-01T16:02:01;0;0;
62054;PMS5003;48653;51.742;-1.256;2023-03-01T16:04:26;0;0;
62054;PMS5003;48653;51.742;-1.256;2023-03-01T16:06:52;3;2;
62054;PMS5003;48653;51.742;-1.256;2023-03-01T16:09:16;3;3;
62054;PMS5003;48653;51.742;-1.256;2023-03-01T16:11:41;5;5;
62054;PMS5003;48653;51.742;-1.256;2023-03-01T16:14:07;9;7;
62054;PMS5003;48653;51.742;-1.256;2023-03-01T16:16:32;8;6;
62054;PMS5003;48653;51.742;-1.256;2023-03-01T16:18:58;8;7;
62054;PMS5003;48653;51.742;-1.256;2023-03-01T16:21:24;9;8;
62054;PMS5003;48653;51.742;-1.256;2023-03-01T16:23:48;10;7;
62054;PMS5003;48653;51.742;-1.256;2023-03-01T16:26:13;5;5;
62054;PMS5003;48653;51.742;-1.256;2023-03-01T16:28:38;9;6;
62054;PMS5003;48653;51.742;-1.256;2023-03-01T16:31:04;4;4;
62054;PMS5003;48653;51.742;-1.256;2023-03-01T16:33:29;4;4;
62054;PMS5003;48653;51.742;-1.256;2023-03-01T16:35:54;5;5;
62054;PMS5003;48653;51.742;-1.256;2023-03-01T16:38:19;8;2;
62054;PMS5003;48653;51.742;-1.256;2023-03-01T16:40:46;4;3;
62054;PMS5003;48653;51.742;-1.256;2023-03-01T16:43:09;2;2;